sensor_id;sensor_type;location;lat;lon;timestamp;temperature;humidity
68924;DHT22;55961;52.156;20.942;2022-09-30T00:01:44;6.10;75.00
68924;DHT22;55961;52.156;20.942;2022-09-30T00:04:19;6.10;75.00
68924;DHT22;55961;52.156;20.942;2022-09-30T00:06:45;6.10;75.20
68924;DHT22;55961;52.156;20.942;2022-09-30T00:09:12;6.10;75.20
68924;DHT22;55961;52.156;20.942;2022-09-30T00:11:38;6.10;75.20
68924;DHT22;55961;52.156;20.942;2022-09-30T00:14:06;6.00;75.20
68924;DHT22;55961;52.156;20.942;2022-09-30T00:16:35;6.00;75.30
68924;DHT22;55961;52.156;20.942;2022-09-30T00:19:01;6.00;75.30
68924;DHT22;55961;52.156;20.942;2022-09-30T00:21:29;6.00;75.60
68924;DHT22;55961;52.156;20.942;2022-09-30T00:23:57;6.00;75.50
68924;DHT22;55961;52.156;20.942;2022-09-30T00:26:23;6.00;75.50
68924;DHT22;55961;52.156;20.942;2022-09-30T00:28:54;5.90;75.50
68924;DHT22;55961;52.156;20.942;2022-09-30T00:31:22;5.90;75.50
68924;DHT22;55961;52.156;20.942;2022-09-30T00:33:48;5.90;75.50
68924;DHT22;55961;52.156;20.942;2022-09-30T00:38:58;5.90;75.50
68924;DHT22;55961;52.156;20.942;2022-09-30T00:41:24;5.90;75.50
68924;DHT22;55961;52.156;20.942;2022-09-30T00:43:50;5.90;75.80
68924;DHT22;55961;52.156;20.942;2022-09-30T00:46:34;5.90;75.90
68924;DHT22;55961;52.156;20.942;2022-09-30T00:49:10;5.80;75.80
68924;DHT22;55961;52.156;20.942;2022-09-30T00:51:41;5.80;75.80
68924;DHT22;55961;52.156;20.942;2022-09-30T00:54:12;5.80;75.80
68924;DHT22;55961;52.156;20.942;2022-09-30T00:56:43;5.80;75.90
68924;DHT22;55961;52.156;20.942;2022-09-30T00:59:15;5.80;75.80
68924;DHT22;55961;52.156;20.942;2022-09-30T01:01:43;5.80;75.80
68924;DHT22;55961;52.156;20.942;2022-09-30T01:04:11;5.70;75.90
68924;DHT22;55961;52.156;20.942;2022-09-30T01:06:38;5.70;75.80
68924;DHT22;55961;52.156;20.942;2022-09-30T01:09:03;5.70;75.90
68924;DHT22;55961;52.156;20.942;2022-09-30T01:11:29;5.70;76.00
68924;DHT22;55961;52.156;20.942;2022-09-30T01:13:59;5.70;76.10
68924;DHT22;55961;52.156;20.942;2022-09-30T01:27:11;5.60;76.40
68924;DHT22;55961;52.156;20.942;2022-09-30T01:41:05;5.70;77.10
68924;DHT22;55961;52.156;20.942;2022-09-30T01:43:43;5.70;77.30
68924;DHT22;55961;52.156;20.942;2022-09-30T01:46:29;5.60;77.40
68924;DHT22;55961;52.156;20.942;2022-09-30T01:49:05;5.60;77.50
68924;DHT22;55961;52.156;20.942;2022-09-30T01:51:59;5.60;77.60
68924;DHT22;55961;52.156;20.942;2022-09-30T01:57:16;5.60;77.60
68924;DHT22;55961;52.156;20.942;2022-09-30T01:59:49;5.60;77.60
68924;DHT22;55961;52.156;20.942;2022-09-30T02:02:19;5.60;77.50
68924;DHT22;55961;52.156;20.942;2022-09-30T02:05:06;5.60;77.50
68924;DHT22;55961;52.156;20.942;2022-09-30T02:07:54;5.60;77.40
68924;DHT22;55961;52.156;20.942;2022-09-30T02:10:27;5.60;77.40
68924;DHT22;55961;52.156;20.942;2022-09-30T02:13:09;5.50;77.40
68924;DHT22;55961;52.156;20.942;2022-09-30T02:15:41;5.50;77.40
68924;DHT22;55961;52.156;20.942;2022-09-30T02:18:19;5.50;77.30
68924;DHT22;55961;52.156;20.942;2022-09-30T02:20:49;5.50;77.30
68924;DHT22;55961;52.156;20.942;2022-09-30T02:23:21;5.50;77.40
68924;DHT22;55961;52.156;20.942;2022-09-30T02:26:16;5.50;77.30
68924;DHT22;55961;52.156;20.942;2022-09-30T02:28:48;5.50;77.30
68924;DHT22;55961;52.156;20.942;2022-09-30T02:31:15;5.50;77.30
68924;DHT22;55961;52.156;20.942;2022-09-30T02:34:30;5.50;77.20
68924;DHT22;55961;52.156;20.942;2022-09-30T02:36:36;5.50;77.10
68924;DHT22;55961;52.156;20.942;2022-09-30T02:39:09;5.40;77.10
68924;DHT22;55961;52.156;20.942;2022-09-30T02:41:46;5.40;77.10
68924;DHT22;55961;52.156;20.942;2022-09-30T02:44:14;5.40;77.10
68924;DHT22;55961;52.156;20.942;2022-09-30T02:46:56;5.40;77.00
68924;DHT22;55961;52.156;20.942;2022-09-30T02:49:27;5.40;77.00
68924;DHT22;55961;52.156;20.942;2022-09-30T02:54:51;5.40;76.90
68924;DHT22;55961;52.156;20.942;2022-09-30T03:00:02;5.30;76.90
68924;DHT22;55961;52.156;20.942;2022-09-30T03:02:29;5.30;76.80
68924;DHT22;55961;52.156;20.942;2022-09-30T03:04:55;5.30;76.80
68924;DHT22;55961;52.156;20.942;2022-09-30T03:07:21;5.30;76.80
68924;DHT22;55961;52.156;20.942;2022-09-30T03:09:47;5.20;76.70
68924;DHT22;55961;52.156;20.942;2022-09-30T03:12:37;5.20;76.70
68924;DHT22;55961;52.156;20.942;2022-09-30T03:29:06;5.10;77.20
68924;DHT22;55961;52.156;20.942;2022-09-30T03:37:31;5.10;77.30
68924;DHT22;55961;52.156;20.942;2022-09-30T03:40:54;5.10;77.20
68924;DHT22;55961;52.156;20.942;2022-09-30T03:46:01;5.10;77.30
68924;DHT22;55961;52.156;20.942;2022-09-30T03:48:31;5.10;77.40
68924;DHT22;55961;52.156;20.942;2022-09-30T03:50:58;5.10;77.30
68924;DHT22;55961;52.156;20.942;2022-09-30T03:53:25;5.10;77.30
68924;DHT22;55961;52.156;20.942;2022-09-30T03:55:52;5.10;77.30
68924;DHT22;55961;52.156;20.942;2022-09-30T03:58:20;5.00;77.30
68924;DHT22;55961;52.156;20.942;2022-09-30T04:00:50;5.10;77.40
68924;DHT22;55961;52.156;20.942;2022-09-30T04:03:16;5.10;77.40
68924;DHT22;55961;52.156;20.942;2022-09-30T04:05:43;5.00;77.40
68924;DHT22;55961;52.156;20.942;2022-09-30T04:08:08;5.00;77.40
68924;DHT22;55961;52.156;20.942;2022-09-30T04:10:34;5.00;77.50
68924;DHT22;55961;52.156;20.942;2022-09-30T04:13:00;5.00;77.50
68924;DHT22;55961;52.156;20.942;2022-09-30T04:15:26;5.10;77.60
68924;DHT22;55961;52.156;20.942;2022-09-30T04:17:52;5.10;77.50
68924;DHT22;55961;52.156;20.942;2022-09-30T04:20:18;5.00;77.40
68924;DHT22;55961;52.156;20.942;2022-09-30T04:22:44;5.00;77.40
68924;DHT22;55961;52.156;20.942;2022-09-30T04:25:11;5.00;77.80
68924;DHT22;55961;52.156;20.942;2022-09-30T04:27:42;5.00;77.80
68924;DHT22;55961;52.156;20.942;2022-09-30T04:30:08;5.00;77.80
68924;DHT22;55961;52.156;20.942;2022-09-30T04:32:34;5.00;77.90
68924;DHT22;55961;52.156;20.942;2022-09-30T04:35:00;5.00;77.90
68924;DHT22;55961;52.156;20.942;2022-09-30T04:37:26;5.00;77.90
68924;DHT22;55961;52.156;20.942;2022-09-30T04:39:52;5.00;77.90
68924;DHT22;55961;52.156;20.942;2022-09-30T04:42:17;5.00;78.00
68924;DHT22;55961;52.156;20.942;2022-09-30T04:44:43;5.00;78.00
68924;DHT22;55961;52.156;20.942;2022-09-30T04:47:09;5.00;78.10
68924;DHT22;55961;52.156;20.942;2022-09-30T04:49:35;5.00;78.20
68924;DHT22;55961;52.156;20.942;2022-09-30T04:52:01;5.00;78.40
68924;DHT22;55961;52.156;20.942;2022-09-30T04:54:26;5.00;78.80
68924;DHT22;55961;52.156;20.942;2022-09-30T04:56:52;5.00;79.00
68924;DHT22;55961;52.156;20.942;2022-09-30T04:59:18;5.00;79.10
68924;DHT22;55961;52.156;20.942;2022-09-30T05:01:44;5.00;79.30
68924;DHT22;55961;52.156;20.942;2022-09-30T05:04:10;5.00;79.70
68924;DHT22;55961;52.156;20.942;2022-09-30T05:06:38;5.00;80.40
68924;DHT22;55961;52.156;20.942;2022-09-30T05:09:06;5.00;81.30
68924;DHT22;55961;52.156;20.942;2022-09-30T05:11:32;5.00;81.80
68924;DHT22;55961;52.156;20.942;2022-09-30T05:13:57;5.00;82.30
68924;DHT22;55961;52.156;20.942;2022-09-30T05:16:23;5.00;82.40
68924;DHT22;55961;52.156;20.942;2022-09-30T05:18:52;5.10;82.60
68924;DHT22;55961;52.156;20.942;2022-09-30T05:21:19;5.10;82.70
68924;DHT22;55961;52.156;20.942;2022-09-30T05:23:46;5.20;82.80
68924;DHT22;55961;52.156;20.942;2022-09-30T05:26:12;5.20;82.80
68924;DHT22;55961;52.156;20.942;2022-09-30T05:28:41;5.20;82.80
68924;DHT22;55961;52.156;20.942;2022-09-30T05:31:07;5.30;82.80
68924;DHT22;55961;52.156;20.942;2022-09-30T05:33:33;5.30;82.70
68924;DHT22;55961;52.156;20.942;2022-09-30T05:36:02;5.30;82.70
68924;DHT22;55961;52.156;20.942;2022-09-30T05:38:29;5.40;82.80
68924;DHT22;55961;52.156;20.942;2022-09-30T05:40:55;5.40;82.60
68924;DHT22;55961;52.156;20.942;2022-09-30T05:43:21;5.40;82.70
68924;DHT22;55961;52.156;20.942;2022-09-30T05:45:54;5.50;82.70
68924;DHT22;55961;52.156;20.942;2022-09-30T05:48:21;5.50;82.70
68924;DHT22;55961;52.156;20.942;2022-09-30T05:50:48;5.50;82.90
68924;DHT22;55961;52.156;20.942;2022-09-30T05:53:16;5.60;82.90
68924;DHT22;55961;52.156;20.942;2022-09-30T05:55:46;5.60;83.10
68924;DHT22;55961;52.156;20.942;2022-09-30T05:58:15;5.70;82.70
68924;DHT22;55961;52.156;20.942;2022-09-30T06:00:43;5.70;82.60
68924;DHT22;55961;52.156;20.942;2022-09-30T06:03:10;5.70;82.40
68924;DHT22;55961;52.156;20.942;2022-09-30T06:05:36;5.70;82.50
68924;DHT22;55961;52.156;20.942;2022-09-30T06:08:03;5.70;82.60
68924;DHT22;55961;52.156;20.942;2022-09-30T06:10:29;5.70;82.70
68924;DHT22;55961;52.156;20.942;2022-09-30T06:12:55;5.80;82.70
68924;DHT22;55961;52.156;20.942;2022-09-30T06:15:24;5.80;82.70
68924;DHT22;55961;52.156;20.942;2022-09-30T06:17:53;5.80;82.90
68924;DHT22;55961;52.156;20.942;2022-09-30T06:20:19;5.80;83.00
68924;DHT22;55961;52.156;20.942;2022-09-30T06:22:45;5.90;83.20
68924;DHT22;55961;52.156;20.942;2022-09-30T06:25:11;5.90;83.30
68924;DHT22;55961;52.156;20.942;2022-09-30T06:27:37;5.90;83.40
68924;DHT22;55961;52.156;20.942;2022-09-30T06:30:04;5.90;83.40
68924;DHT22;55961;52.156;20.942;2022-09-30T06:32:31;6.00;83.60
68924;DHT22;55961;52.156;20.942;2022-09-30T06:34:57;6.10;83.70
68924;DHT22;55961;52.156;20.942;2022-09-30T06:37:23;6.10;83.80
68924;DHT22;55961;52.156;20.942;2022-09-30T06:39:50;6.20;83.80
68924;DHT22;55961;52.156;20.942;2022-09-30T06:42:17;6.30;83.80
68924;DHT22;55961;52.156;20.942;2022-09-30T06:44:44;6.30;83.70
68924;DHT22;55961;52.156;20.942;2022-09-30T06:47:12;6.40;83.90
68924;DHT22;55961;52.156;20.942;2022-09-30T06:49:39;6.40;84.10
68924;DHT22;55961;52.156;20.942;2022-09-30T06:52:05;6.50;84.70
68924;DHT22;55961;52.156;20.942;2022-09-30T06:54:31;6.60;85.30
68924;DHT22;55961;52.156;20.942;2022-09-30T06:56:57;6.80;85.40
68924;DHT22;55961;52.156;20.942;2022-09-30T06:59:23;6.90;85.10
68924;DHT22;55961;52.156;20.942;2022-09-30T07:01:49;7.00;84.80
68924;DHT22;55961;52.156;20.942;2022-09-30T07:04:15;7.10;84.70
68924;DHT22;55961;52.156;20.942;2022-09-30T07:06:41;7.20;84.60
68924;DHT22;55961;52.156;20.942;2022-09-30T07:09:08;7.30;84.20
68924;DHT22;55961;52.156;20.942;2022-09-30T07:11:35;7.40;83.90
68924;DHT22;55961;52.156;20.942;2022-09-30T07:14:05;7.50;83.40
68924;DHT22;55961;52.156;20.942;2022-09-30T07:16:31;7.60;83.10
68924;DHT22;55961;52.156;20.942;2022-09-30T07:18:59;7.60;82.90
68924;DHT22;55961;52.156;20.942;2022-09-30T07:21:26;7.70;82.70
68924;DHT22;55961;52.156;20.942;2022-09-30T07:23:52;7.80;82.60
68924;DHT22;55961;52.156;20.942;2022-09-30T07:26:22;7.90;82.20
68924;DHT22;55961;52.156;20.942;2022-09-30T07:28:49;7.90;81.90
68924;DHT22;55961;52.156;20.942;2022-09-30T07:31:23;8.00;81.60
68924;DHT22;55961;52.156;20.942;2022-09-30T07:33:50;8.00;81.60
68924;DHT22;55961;52.156;20.942;2022-09-30T07:36:18;8.10;81.80
68924;DHT22;55961;52.156;20.942;2022-09-30T07:38:45;8.10;81.80
68924;DHT22;55961;52.156;20.942;2022-09-30T07:41:17;8.20;81.90
68924;DHT22;55961;52.156;20.942;2022-09-30T07:43:44;8.30;81.90
68924;DHT22;55961;52.156;20.942;2022-09-30T07:46:14;8.40;82.00
68924;DHT22;55961;52.156;20.942;2022-09-30T07:48:42;8.40;82.10
68924;DHT22;55961;52.156;20.942;2022-09-30T07:51:16;8.60;82.10
68924;DHT22;55961;52.156;20.942;2022-09-30T07:53:45;8.70;82.10
68924;DHT22;55961;52.156;20.942;2022-09-30T07:56:12;8.80;82.00
68924;DHT22;55961;52.156;20.942;2022-09-30T07:58:39;8.90;81.70
68924;DHT22;55961;52.156;20.942;2022-09-30T08:01:06;9.00;81.40
68924;DHT22;55961;52.156;20.942;2022-09-30T08:03:33;9.10;81.00
68924;DHT22;55961;52.156;20.942;2022-09-30T08:06:07;9.20;80.50
68924;DHT22;55961;52.156;20.942;2022-09-30T08:08:34;9.30;80.10
68924;DHT22;55961;52.156;20.942;2022-09-30T08:11:01;9.40;79.90
68924;DHT22;55961;52.156;20.942;2022-09-30T08:13:27;9.50;79.80
68924;DHT22;55961;52.156;20.942;2022-09-30T08:15:53;9.60;79.10
68924;DHT22;55961;52.156;20.942;2022-09-30T08:18:19;9.70;78.80
68924;DHT22;55961;52.156;20.942;2022-09-30T08:20:45;9.80;78.70
68924;DHT22;55961;52.156;20.942;2022-09-30T08:23:11;9.90;78.40
68924;DHT22;55961;52.156;20.942;2022-09-30T08:25:37;10.00;78.40
68924;DHT22;55961;52.156;20.942;2022-09-30T08:28:02;10.10;78.30
68924;DHT22;55961;52.156;20.942;2022-09-30T08:30:28;10.20;77.50
68924;DHT22;55961;52.156;20.942;2022-09-30T08:32:55;10.20;77.10
68924;DHT22;55961;52.156;20.942;2022-09-30T08:35:22;10.40;76.40
68924;DHT22;55961;52.156;20.942;2022-09-30T08:37:48;10.40;76.20
68924;DHT22;55961;52.156;20.942;2022-09-30T08:40:36;10.50;75.60
68924;DHT22;55961;52.156;20.942;2022-09-30T08:43:26;10.50;75.00
68924;DHT22;55961;52.156;20.942;2022-09-30T08:46:05;10.60;74.80
68924;DHT22;55961;52.156;20.942;2022-09-30T08:51:47;10.80;75.50
68924;DHT22;55961;52.156;20.942;2022-09-30T08:54:22;10.80;75.50
68924;DHT22;55961;52.156;20.942;2022-09-30T08:56:50;10.90;75.20
68924;DHT22;55961;52.156;20.942;2022-09-30T08:59:42;11.00;74.70
68924;DHT22;55961;52.156;20.942;2022-09-30T09:02:21;11.00;74.20
68924;DHT22;55961;52.156;20.942;2022-09-30T09:04:50;11.10;74.40
68924;DHT22;55961;52.156;20.942;2022-09-30T09:19:16;11.50;73.00
68924;DHT22;55961;52.156;20.942;2022-09-30T09:21:51;11.50;72.60
68924;DHT22;55961;52.156;20.942;2022-09-30T09:24:26;11.60;72.60
68924;DHT22;55961;52.156;20.942;2022-09-30T09:26:54;11.70;72.40
68924;DHT22;55961;52.156;20.942;2022-09-30T09:30:26;11.80;72.10
68924;DHT22;55961;52.156;20.942;2022-09-30T09:32:26;11.80;71.80
68924;DHT22;55961;52.156;20.942;2022-09-30T09:48:48;12.20;70.50
68924;DHT22;55961;52.156;20.942;2022-09-30T09:51:25;12.30;70.00
68924;DHT22;55961;52.156;20.942;2022-09-30T09:53:53;12.40;69.90
68924;DHT22;55961;52.156;20.942;2022-09-30T09:56:28;12.40;70.00
68924;DHT22;55961;52.156;20.942;2022-09-30T10:01:35;12.50;68.40
68924;DHT22;55961;52.156;20.942;2022-09-30T10:04:10;12.60;68.20
68924;DHT22;55961;52.156;20.942;2022-09-30T10:06:46;12.60;68.10
68924;DHT22;55961;52.156;20.942;2022-09-30T10:09:36;12.70;67.10
68924;DHT22;55961;52.156;20.942;2022-09-30T10:14:32;12.90;67.30
68924;DHT22;55961;52.156;20.942;2022-09-30T10:17:00;13.00;66.90
68924;DHT22;55961;52.156;20.942;2022-09-30T10:19:29;13.00;67.00
68924;DHT22;55961;52.156;20.942;2022-09-30T10:24:37;13.20;66.60
68924;DHT22;55961;52.156;20.942;2022-09-30T10:27:26;13.30;66.60
68924;DHT22;55961;52.156;20.942;2022-09-30T10:29:50;13.40;65.30
68924;DHT22;55961;52.156;20.942;2022-09-30T10:32:16;13.40;64.60
68924;DHT22;55961;52.156;20.942;2022-09-30T10:34:42;13.50;64.00
68924;DHT22;55961;52.156;20.942;2022-09-30T10:37:16;13.60;63.70
68924;DHT22;55961;52.156;20.942;2022-09-30T10:39:57;13.60;64.30
68924;DHT22;55961;52.156;20.942;2022-09-30T10:42:34;13.70;64.40
68924;DHT22;55961;52.156;20.942;2022-09-30T10:45:06;13.80;64.00
68924;DHT22;55961;52.156;20.942;2022-09-30T10:47:46;13.90;64.60
68924;DHT22;55961;52.156;20.942;2022-09-30T10:50:18;13.90;64.40
68924;DHT22;55961;52.156;20.942;2022-09-30T10:53:04;14.00;64.10
68924;DHT22;55961;52.156;20.942;2022-09-30T10:55:43;14.20;63.60
68924;DHT22;55961;52.156;20.942;2022-09-30T11:06:28;14.50;62.20
68924;DHT22;55961;52.156;20.942;2022-09-30T11:09:10;14.60;62.40
68924;DHT22;55961;52.156;20.942;2022-09-30T11:11:59;14.60;61.30
68924;DHT22;55961;52.156;20.942;2022-09-30T11:14:36;14.60;61.10
68924;DHT22;55961;52.156;20.942;2022-09-30T11:17:27;14.60;61.10
68924;DHT22;55961;52.156;20.942;2022-09-30T11:20:19;14.70;61.60
68924;DHT22;55961;52.156;20.942;2022-09-30T11:22:54;14.70;61.40
68924;DHT22;55961;52.156;20.942;2022-09-30T11:25:46;14.70;61.60
68924;DHT22;55961;52.156;20.942;2022-09-30T11:31:01;14.70;61.40
68924;DHT22;55961;52.156;20.942;2022-09-30T11:34:14;14.80;61.70
68924;DHT22;55961;52.156;20.942;2022-09-30T11:44:37;14.80;60.20
68924;DHT22;55961;52.156;20.942;2022-09-30T11:50:13;14.90;59.90
68924;DHT22;55961;52.156;20.942;2022-09-30T11:58:06;14.90;59.70
68924;DHT22;55961;52.156;20.942;2022-09-30T12:00:35;14.90;59.60
68924;DHT22;55961;52.156;20.942;2022-09-30T12:03:14;14.90;60.00
68924;DHT22;55961;52.156;20.942;2022-09-30T12:05:56;14.90;59.80
68924;DHT22;55961;52.156;20.942;2022-09-30T12:08:50;14.80;59.30
68924;DHT22;55961;52.156;20.942;2022-09-30T12:11:38;14.80;59.60
68924;DHT22;55961;52.156;20.942;2022-09-30T12:16:49;14.80;58.10
68924;DHT22;55961;52.156;20.942;2022-09-30T12:19:24;14.80;58.70
68924;DHT22;55961;52.156;20.942;2022-09-30T12:22:08;14.80;58.50
68924;DHT22;55961;52.156;20.942;2022-09-30T12:24:40;14.80;58.00
68924;DHT22;55961;52.156;20.942;2022-09-30T12:27:25;14.70;58.70
68924;DHT22;55961;52.156;20.942;2022-09-30T12:30:03;14.80;57.40
68924;DHT22;55961;52.156;20.942;2022-09-30T12:32:55;14.70;57.80
68924;DHT22;55961;52.156;20.942;2022-09-30T12:44:53;14.70;57.80
68924;DHT22;55961;52.156;20.942;2022-09-30T12:49:59;14.70;57.80
68924;DHT22;55961;52.156;20.942;2022-09-30T12:52:31;14.80;57.70
68924;DHT22;55961;52.156;20.942;2022-09-30T12:55:01;14.70;57.30
68924;DHT22;55961;52.156;20.942;2022-09-30T12:57:32;14.70;57.60
68924;DHT22;55961;52.156;20.942;2022-09-30T13:00:21;14.70;57.50
68924;DHT22;55961;52.156;20.942;2022-09-30T13:02:55;14.70;57.30
68924;DHT22;55961;52.156;20.942;2022-09-30T13:13:24;14.70;55.70
68924;DHT22;55961;52.156;20.942;2022-09-30T13:15:52;14.70;54.70
68924;DHT22;55961;52.156;20.942;2022-09-30T13:23:40;14.80;56.00
68924;DHT22;55961;52.156;20.942;2022-09-30T13:39:24;14.70;53.70
68924;DHT22;55961;52.156;20.942;2022-09-30T13:47:43;14.70;54.50
68924;DHT22;55961;52.156;20.942;2022-09-30T13:50:26;14.60;54.70
68924;DHT22;55961;52.156;20.942;2022-09-30T13:52:56;14.60;55.60
68924;DHT22;55961;52.156;20.942;2022-09-30T13:55:30;14.60;55.10
68924;DHT22;55961;52.156;20.942;2022-09-30T14:00:56;14.60;55.30
68924;DHT22;55961;52.156;20.942;2022-09-30T14:22:50;14.40;56.40
68924;DHT22;55961;52.156;20.942;2022-09-30T14:25:18;14.40;56.50
68924;DHT22;55961;52.156;20.942;2022-09-30T14:30:21;14.40;56.80
68924;DHT22;55961;52.156;20.942;2022-09-30T14:33:01;14.30;57.10
68924;DHT22;55961;52.156;20.942;2022-09-30T14:35:31;14.30;57.30
68924;DHT22;55961;52.156;20.942;2022-09-30T14:38:16;14.20;57.60
68924;DHT22;55961;52.156;20.942;2022-09-30T14:40:50;14.20;57.40
68924;DHT22;55961;52.156;20.942;2022-09-30T14:43:23;14.20;57.60
68924;DHT22;55961;52.156;20.942;2022-09-30T14:45:53;14.20;57.60
68924;DHT22;55961;52.156;20.942;2022-09-30T14:48:23;14.20;57.80
68924;DHT22;55961;52.156;20.942;2022-09-30T14:50:59;14.10;57.80
68924;DHT22;55961;52.156;20.942;2022-09-30T14:53:29;14.10;58.20
68924;DHT22;55961;52.156;20.942;2022-09-30T14:55:57;14.10;58.40
68924;DHT22;55961;52.156;20.942;2022-09-30T15:01:14;14.10;58.80
68924;DHT22;55961;52.156;20.942;2022-09-30T15:04:04;14.10;59.00
68924;DHT22;55961;52.156;20.942;2022-09-30T15:06:36;14.00;58.30
68924;DHT22;55961;52.156;20.942;2022-09-30T15:09:14;14.00;58.60
68924;DHT22;55961;52.156;20.942;2022-09-30T15:11:40;14.00;59.10
68924;DHT22;55961;52.156;20.942;2022-09-30T15:14:17;14.00;59.60
68924;DHT22;55961;52.156;20.942;2022-09-30T15:16:49;13.90;59.60
68924;DHT22;55961;52.156;20.942;2022-09-30T15:19:32;13.90;59.00
68924;DHT22;55961;52.156;20.942;2022-09-30T15:22:02;13.90;59.20
68924;DHT22;55961;52.156;20.942;2022-09-30T15:24:30;13.90;59.10
68924;DHT22;55961;52.156;20.942;2022-09-30T15:26:59;13.90;59.10
68924;DHT22;55961;52.156;20.942;2022-09-30T15:29:25;13.90;58.80
68924;DHT22;55961;52.156;20.942;2022-09-30T15:32:13;13.80;58.70
68924;DHT22;55961;52.156;20.942;2022-09-30T15:34:40;13.80;59.00
68924;DHT22;55961;52.156;20.942;2022-09-30T15:37:22;13.80;59.10
68924;DHT22;55961;52.156;20.942;2022-09-30T15:39:48;13.80;59.30
68924;DHT22;55961;52.156;20.942;2022-09-30T15:42:54;13.70;59.30
68924;DHT22;55961;52.156;20.942;2022-09-30T15:45:44;13.70;59.70
68924;DHT22;55961;52.156;20.942;2022-09-30T15:50:56;13.70;60.30
68924;DHT22;55961;52.156;20.942;2022-09-30T15:53:46;13.70;60.30
68924;DHT22;55961;52.156;20.942;2022-09-30T15:56:32;13.70;60.90
68924;DHT22;55961;52.156;20.942;2022-09-30T15:58:59;13.70;61.30
68924;DHT22;55961;52.156;20.942;2022-09-30T16:01:33;13.70;61.50
68924;DHT22;55961;52.156;20.942;2022-09-30T16:06:48;13.70;61.50
68924;DHT22;55961;52.156;20.942;2022-09-30T16:09:20;13.60;61.50
68924;DHT22;55961;52.156;20.942;2022-09-30T16:11:57;13.60;62.00
68924;DHT22;55961;52.156;20.942;2022-09-30T16:14:26;13.60;62.30
68924;DHT22;55961;52.156;20.942;2022-09-30T16:16:56;13.60;62.30
68924;DHT22;55961;52.156;20.942;2022-09-30T16:19:23;13.60;62.20
68924;DHT22;55961;52.156;20.942;2022-09-30T16:21:50;13.50;62.30
68924;DHT22;55961;52.156;20.942;2022-09-30T16:26:50;13.50;62.10
68924;DHT22;55961;52.156;20.942;2022-09-30T16:29:16;13.50;62.10
68924;DHT22;55961;52.156;20.942;2022-09-30T16:31:43;13.50;62.30
68924;DHT22;55961;52.156;20.942;2022-09-30T16:36:45;13.40;62.60
68924;DHT22;55961;52.156;20.942;2022-09-30T16:39:14;13.40;62.80
68924;DHT22;55961;52.156;20.942;2022-09-30T16:41:40;13.40;62.60
68924;DHT22;55961;52.156;20.942;2022-09-30T16:44:06;13.40;62.80
68924;DHT22;55961;52.156;20.942;2022-09-30T16:46:32;13.40;62.60
68924;DHT22;55961;52.156;20.942;2022-09-30T16:48:58;13.40;62.60
68924;DHT22;55961;52.156;20.942;2022-09-30T16:51:25;13.40;63.00
68924;DHT22;55961;52.156;20.942;2022-09-30T16:53:51;13.40;63.30
68924;DHT22;55961;52.156;20.942;2022-09-30T16:56:18;13.40;63.40
68924;DHT22;55961;52.156;20.942;2022-09-30T16:58:45;13.30;63.50
68924;DHT22;55961;52.156;20.942;2022-09-30T17:01:20;13.30;63.50
68924;DHT22;55961;52.156;20.942;2022-09-30T17:03:46;13.30;63.50
68924;DHT22;55961;52.156;20.942;2022-09-30T17:06:15;13.30;63.60
68924;DHT22;55961;52.156;20.942;2022-09-30T17:08:42;13.30;63.80
68924;DHT22;55961;52.156;20.942;2022-09-30T17:11:09;13.30;63.90
68924;DHT22;55961;52.156;20.942;2022-09-30T17:13:36;13.30;64.00
68924;DHT22;55961;52.156;20.942;2022-09-30T17:16:02;13.20;63.90
68924;DHT22;55961;52.156;20.942;2022-09-30T17:18:28;13.20;64.50
68924;DHT22;55961;52.156;20.942;2022-09-30T17:20:53;13.20;64.60
68924;DHT22;55961;52.156;20.942;2022-09-30T17:23:22;13.20;65.00
68924;DHT22;55961;52.156;20.942;2022-09-30T17:25:48;13.20;64.80
68924;DHT22;55961;52.156;20.942;2022-09-30T17:28:15;13.20;64.60
68924;DHT22;55961;52.156;20.942;2022-09-30T17:30:43;13.10;64.60
68924;DHT22;55961;52.156;20.942;2022-09-30T17:33:09;13.10;64.90
68924;DHT22;55961;52.156;20.942;2022-09-30T17:35:36;13.10;65.00
68924;DHT22;55961;52.156;20.942;2022-09-30T17:38:11;13.10;65.10
68924;DHT22;55961;52.156;20.942;2022-09-30T17:40:38;13.10;65.00
68924;DHT22;55961;52.156;20.942;2022-09-30T17:43:23;13.00;65.00
68924;DHT22;55961;52.156;20.942;2022-09-30T17:45:49;13.00;65.10
68924;DHT22;55961;52.156;20.942;2022-09-30T17:48:16;13.00;65.20
68924;DHT22;55961;52.156;20.942;2022-09-30T17:50:46;13.00;65.20
68924;DHT22;55961;52.156;20.942;2022-09-30T17:53:15;13.00;65.60
68924;DHT22;55961;52.156;20.942;2022-09-30T17:55:43;12.90;65.80
68924;DHT22;55961;52.156;20.942;2022-09-30T17:58:12;12.90;66.40
68924;DHT22;55961;52.156;20.942;2022-09-30T18:00:38;12.80;66.40
68924;DHT22;55961;52.156;20.942;2022-09-30T18:03:04;12.80;66.50
68924;DHT22;55961;52.156;20.942;2022-09-30T18:05:31;12.70;66.70
68924;DHT22;55961;52.156;20.942;2022-09-30T18:07:58;12.70;67.00
68924;DHT22;55961;52.156;20.942;2022-09-30T18:10:25;12.70;67.10
68924;DHT22;55961;52.156;20.942;2022-09-30T18:12:54;12.60;67.20
68924;DHT22;55961;52.156;20.942;2022-09-30T18:15:23;12.60;67.30
68924;DHT22;55961;52.156;20.942;2022-09-30T18:17:51;12.60;67.50
68924;DHT22;55961;52.156;20.942;2022-09-30T18:20:17;12.60;67.40
68924;DHT22;55961;52.156;20.942;2022-09-30T18:22:43;12.60;67.20
68924;DHT22;55961;52.156;20.942;2022-09-30T18:25:09;12.60;67.10
68924;DHT22;55961;52.156;20.942;2022-09-30T18:27:53;12.60;67.00
68924;DHT22;55961;52.156;20.942;2022-09-30T18:30:21;12.50;66.90
68924;DHT22;55961;52.156;20.942;2022-09-30T18:32:49;12.50;66.70
68924;DHT22;55961;52.156;20.942;2022-09-30T18:35:16;12.50;66.40
68924;DHT22;55961;52.156;20.942;2022-09-30T18:37:45;12.50;66.50
68924;DHT22;55961;52.156;20.942;2022-09-30T18:40:12;12.50;66.60
68924;DHT22;55961;52.156;20.942;2022-09-30T18:42:44;12.50;66.60
68924;DHT22;55961;52.156;20.942;2022-09-30T18:45:10;12.40;66.90
68924;DHT22;55961;52.156;20.942;2022-09-30T18:47:41;12.40;67.20
68924;DHT22;55961;52.156;20.942;2022-09-30T18:50:09;12.40;67.50
68924;DHT22;55961;52.156;20.942;2022-09-30T18:52:35;12.40;67.70
68924;DHT22;55961;52.156;20.942;2022-09-30T18:55:01;12.30;67.80
68924;DHT22;55961;52.156;20.942;2022-09-30T18:57:28;12.30;67.90
68924;DHT22;55961;52.156;20.942;2022-09-30T18:59:55;12.30;68.20
68924;DHT22;55961;52.156;20.942;2022-09-30T19:02:21;12.30;68.30
68924;DHT22;55961;52.156;20.942;2022-09-30T19:04:47;12.30;68.30
68924;DHT22;55961;52.156;20.942;2022-09-30T19:07:17;12.30;68.40
68924;DHT22;55961;52.156;20.942;2022-09-30T19:09:43;12.30;68.40
68924;DHT22;55961;52.156;20.942;2022-09-30T19:12:12;12.30;68.40